Kettle Falls, Washington
Current Conditions -  °F | °C
As of 10:00 AM on Tuesday 21 Oct 2014 (Local Time) from CYCG Reporting Station
Broken Clouds Broken Clouds  
Wind Chill: 54°   Ceiling: 7000
Heat Index: 54°   Visibility: 15mi
Dew Point: 46°   Wind: 13mph
Humidity: 77%   Direction: 190°S
Pressure: 29.84"   Gusts: NA
Location:  48.61°N, 118.06°W
Report Text: CYCG 211700Z 19011KT 15SM FEW018 SCT040 BKN070 12/08 A2984 RMK SC1SC2AC2 SLP108 DENSITY ALT 1700FT
Loading
Personal Weather Stations






























Interactive Weather Map
Tropical Storm Tracking
New forecast layout! Learn more

10-Day Weather Forecast

Advertisements
Track Severe Weather on mobile